sensor_id;sensor_type;location;lat;lon;timestamp;temperature;humidity
12386;DHT22;6257;57.634;18.310;2022-12-24T00:00:40;-0.30;99.90
12386;DHT22;6257;57.634;18.310;2022-12-24T00:03:08;-0.20;99.90
12386;DHT22;6257;57.634;18.310;2022-12-24T00:05:38;0.00;99.90
12386;DHT22;6257;57.634;18.310;2022-12-24T00:08:05;0.00;99.90
12386;DHT22;6257;57.634;18.310;2022-12-24T00:10:32;0.00;99.90
12386;DHT22;6257;57.634;18.310;2022-12-24T00:12:59;0.00;99.90
12386;DHT22;6257;57.634;18.310;2022-12-24T00:15:26;0.00;99.90
12386;DHT22;6257;57.634;18.310;2022-12-24T00:17:53;0.00;99.90
12386;DHT22;6257;57.634;18.310;2022-12-24T00:20:20;0.20;99.90
12386;DHT22;6257;57.634;18.310;2022-12-24T00:22:50;0.00;99.90
12386;DHT22;6257;57.634;18.310;2022-12-24T00:25:17;-0.20;99.90
12386;DHT22;6257;57.634;18.310;2022-12-24T00:27:44;-0.40;99.90
12386;DHT22;6257;57.634;18.310;2022-12-24T00:30:12;-0.30;99.90
12386;DHT22;6257;57.634;18.310;2022-12-24T00:32:39;-0.50;99.90
12386;DHT22;6257;57.634;18.310;2022-12-24T00:35:07;-0.60;99.90
12386;DHT22;6257;57.634;18.310;2022-12-24T00:37:34;-0.70;99.90
12386;DHT22;6257;57.634;18.310;2022-12-24T00:40:03;-0.60;99.90
12386;DHT22;6257;57.634;18.310;2022-12-24T00:42:30;-0.70;99.90
12386;DHT22;6257;57.634;18.310;2022-12-24T00:44:57;-0.40;99.90
12386;DHT22;6257;57.634;18.310;2022-12-24T00:47:25;-0.20;99.90
12386;DHT22;6257;57.634;18.310;2022-12-24T00:49:52;-1.00;99.90
12386;DHT22;6257;57.634;18.310;2022-12-24T00:52:19;-1.20;99.90
12386;DHT22;6257;57.634;18.310;2022-12-24T00:54:47;-0.60;99.90
12386;DHT22;6257;57.634;18.310;2022-12-24T00:59:42;-1.20;99.90
12386;DHT22;6257;57.634;18.310;2022-12-24T01:02:09;-1.20;99.90
12386;DHT22;6257;57.634;18.310;2022-12-24T01:04:37;-1.30;99.90
12386;DHT22;6257;57.634;18.310;2022-12-24T01:07:21;-1.30;99.90
12386;DHT22;6257;57.634;18.310;2022-12-24T01:09:48;-1.40;99.90
12386;DHT22;6257;57.634;18.310;2022-12-24T01:12:17;-1.50;99.90
12386;DHT22;6257;57.634;18.310;2022-12-24T01:14:44;-1.50;99.90
12386;DHT22;6257;57.634;18.310;2022-12-24T01:17:11;-1.50;99.90
12386;DHT22;6257;57.634;18.310;2022-12-24T01:19:38;-1.60;99.90
12386;DHT22;6257;57.634;18.310;2022-12-24T01:22:06;-1.60;99.90
12386;DHT22;6257;57.634;18.310;2022-12-24T01:24:33;-1.60;99.90
12386;DHT22;6257;57.634;18.310;2022-12-24T01:27:00;-1.60;99.90
12386;DHT22;6257;57.634;18.310;2022-12-24T01:31:56;-1.70;99.90
12386;DHT22;6257;57.634;18.310;2022-12-24T01:34:24;-0.40;99.90
12386;DHT22;6257;57.634;18.310;2022-12-24T01:36:51;-1.70;99.90
12386;DHT22;6257;57.634;18.310;2022-12-24T01:39:18;-1.70;99.90
12386;DHT22;6257;57.634;18.310;2022-12-24T01:41:45;-1.60;99.90
12386;DHT22;6257;57.634;18.310;2022-12-24T01:44:33;-1.60;99.90
12386;DHT22;6257;57.634;18.310;2022-12-24T01:47:05;-1.50;99.90
12386;DHT22;6257;57.634;18.310;2022-12-24T01:49:34;-1.40;99.90
12386;DHT22;6257;57.634;18.310;2022-12-24T01:52:05;-1.40;99.90
12386;DHT22;6257;57.634;18.310;2022-12-24T01:54:34;-1.40;99.90
12386;DHT22;6257;57.634;18.310;2022-12-24T01:57:06;-1.50;99.90
12386;DHT22;6257;57.634;18.310;2022-12-24T01:59:37;-1.60;99.90
12386;DHT22;6257;57.634;18.310;2022-12-24T02:02:04;-1.60;99.90
12386;DHT22;6257;57.634;18.310;2022-12-24T02:04:36;-1.70;99.90
12386;DHT22;6257;57.634;18.310;2022-12-24T02:07:03;-1.80;99.90
12386;DHT22;6257;57.634;18.310;2022-12-24T02:09:32;-1.80;99.90
12386;DHT22;6257;57.634;18.310;2022-12-24T02:11:59;-2.00;99.90
12386;DHT22;6257;57.634;18.310;2022-12-24T02:14:27;-2.00;99.90
12386;DHT22;6257;57.634;18.310;2022-12-24T02:17:03;-2.00;99.90
12386;DHT22;6257;57.634;18.310;2022-12-24T02:23:05;-2.10;99.90
12386;DHT22;6257;57.634;18.310;2022-12-24T02:25:43;-2.20;99.90
12386;DHT22;6257;57.634;18.310;2022-12-24T02:28:24;-2.30;99.90
12386;DHT22;6257;57.634;18.310;2022-12-24T02:30:58;-2.40;99.90
12386;DHT22;6257;57.634;18.310;2022-12-24T02:33:31;-2.40;99.90
12386;DHT22;6257;57.634;18.310;2022-12-24T02:36:05;-2.40;99.90
12386;DHT22;6257;57.634;18.310;2022-12-24T02:38:37;-2.50;99.90
12386;DHT22;6257;57.634;18.310;2022-12-24T02:41:09;-2.60;99.90
12386;DHT22;6257;57.634;18.310;2022-12-24T02:43:38;-2.60;99.90
12386;DHT22;6257;57.634;18.310;2022-12-24T02:46:12;-2.70;99.90
12386;DHT22;6257;57.634;18.310;2022-12-24T02:48:41;-2.70;99.90
12386;DHT22;6257;57.634;18.310;2022-12-24T02:51:10;-2.70;99.90
12386;DHT22;6257;57.634;18.310;2022-12-24T02:53:38;-2.70;99.90
12386;DHT22;6257;57.634;18.310;2022-12-24T02:59:19;-2.80;99.90
12386;DHT22;6257;57.634;18.310;2022-12-24T03:01:59;-2.80;99.90
12386;DHT22;6257;57.634;18.310;2022-12-24T03:04:35;-2.90;99.90
12386;DHT22;6257;57.634;18.310;2022-12-24T03:07:09;-2.90;99.90
12386;DHT22;6257;57.634;18.310;2022-12-24T03:09:49;-2.50;99.90
12386;DHT22;6257;57.634;18.310;2022-12-24T03:12:23;-3.00;99.90
12386;DHT22;6257;57.634;18.310;2022-12-24T03:14:52;-2.20;99.90
12386;DHT22;6257;57.634;18.310;2022-12-24T03:17:22;-3.10;99.90
12386;DHT22;6257;57.634;18.310;2022-12-24T03:19:49;-3.20;99.90
12386;DHT22;6257;57.634;18.310;2022-12-24T03:22:17;-3.20;99.90
12386;DHT22;6257;57.634;18.310;2022-12-24T03:24:44;-3.20;99.90
12386;DHT22;6257;57.634;18.310;2022-12-24T03:27:12;-3.30;99.90
12386;DHT22;6257;57.634;18.310;2022-12-24T03:29:40;-3.20;99.90
12386;DHT22;6257;57.634;18.310;2022-12-24T03:32:07;-2.10;99.90
12386;DHT22;6257;57.634;18.310;2022-12-24T03:34:36;-3.30;99.90
12386;DHT22;6257;57.634;18.310;2022-12-24T03:37:03;-3.30;99.90
12386;DHT22;6257;57.634;18.310;2022-12-24T03:39:31;-1.40;99.90
12386;DHT22;6257;57.634;18.310;2022-12-24T03:41:58;-0.70;99.90
12386;DHT22;6257;57.634;18.310;2022-12-24T03:44:25;-1.50;99.90
12386;DHT22;6257;57.634;18.310;2022-12-24T03:46:53;-3.40;99.90
12386;DHT22;6257;57.634;18.310;2022-12-24T03:49:20;-3.40;99.90
12386;DHT22;6257;57.634;18.310;2022-12-24T03:51:49;-3.40;99.90
12386;DHT22;6257;57.634;18.310;2022-12-24T03:54:16;-3.50;99.90
12386;DHT22;6257;57.634;18.310;2022-12-24T03:56:43;-3.50;99.90
12386;DHT22;6257;57.634;18.310;2022-12-24T03:59:10;-3.60;99.90
12386;DHT22;6257;57.634;18.310;2022-12-24T04:01:37;-3.60;99.90
12386;DHT22;6257;57.634;18.310;2022-12-24T04:04:05;-3.70;99.90
12386;DHT22;6257;57.634;18.310;2022-12-24T04:06:32;-3.70;99.90
12386;DHT22;6257;57.634;18.310;2022-12-24T04:09:00;-3.70;99.90
12386;DHT22;6257;57.634;18.310;2022-12-24T04:11:29;-3.80;99.90
12386;DHT22;6257;57.634;18.310;2022-12-24T04:13:57;-3.80;99.90
12386;DHT22;6257;57.634;18.310;2022-12-24T04:16:25;-3.90;99.90
12386;DHT22;6257;57.634;18.310;2022-12-24T04:18:52;-3.90;99.90
12386;DHT22;6257;57.634;18.310;2022-12-24T04:21:19;-3.90;99.90
12386;DHT22;6257;57.634;18.310;2022-12-24T04:23:47;-4.00;99.90
12386;DHT22;6257;57.634;18.310;2022-12-24T04:26:16;-4.00;99.90
12386;DHT22;6257;57.634;18.310;2022-12-24T04:28:43;-4.00;99.90
12386;DHT22;6257;57.634;18.310;2022-12-24T04:31:12;-4.00;99.90
12386;DHT22;6257;57.634;18.310;2022-12-24T04:33:39;-4.00;99.90
12386;DHT22;6257;57.634;18.310;2022-12-24T04:36:09;-4.00;99.90
12386;DHT22;6257;57.634;18.310;2022-12-24T04:38:38;-4.00;99.90
12386;DHT22;6257;57.634;18.310;2022-12-24T04:41:06;-4.10;99.90
12386;DHT22;6257;57.634;18.310;2022-12-24T04:43:35;-4.10;99.90
12386;DHT22;6257;57.634;18.310;2022-12-24T04:46:07;-4.10;99.90
12386;DHT22;6257;57.634;18.310;2022-12-24T04:48:39;-4.10;99.90
12386;DHT22;6257;57.634;18.310;2022-12-24T04:51:08;-4.10;99.90
12386;DHT22;6257;57.634;18.310;2022-12-24T04:53:36;-4.10;99.90
12386;DHT22;6257;57.634;18.310;2022-12-24T04:56:05;-4.10;99.90
12386;DHT22;6257;57.634;18.310;2022-12-24T04:58:34;-4.10;99.90
12386;DHT22;6257;57.634;18.310;2022-12-24T05:01:02;-4.10;99.90
12386;DHT22;6257;57.634;18.310;2022-12-24T05:03:30;-2.50;99.90
12386;DHT22;6257;57.634;18.310;2022-12-24T05:06:00;-4.10;99.90
12386;DHT22;6257;57.634;18.310;2022-12-24T05:08:27;-4.10;99.90
12386;DHT22;6257;57.634;18.310;2022-12-24T05:10:56;-4.20;99.90
12386;DHT22;6257;57.634;18.310;2022-12-24T05:13:23;-4.20;99.90
12386;DHT22;6257;57.634;18.310;2022-12-24T05:15:52;-4.20;99.90
12386;DHT22;6257;57.634;18.310;2022-12-24T05:18:19;-4.20;99.90
12386;DHT22;6257;57.634;18.310;2022-12-24T05:20:47;-4.20;99.90
12386;DHT22;6257;57.634;18.310;2022-12-24T05:23:15;-2.50;99.90
12386;DHT22;6257;57.634;18.310;2022-12-24T05:25:59;-4.20;99.90
12386;DHT22;6257;57.634;18.310;2022-12-24T05:28:44;-4.30;99.90
12386;DHT22;6257;57.634;18.310;2022-12-24T05:31:12;-4.30;99.90
12386;DHT22;6257;57.634;18.310;2022-12-24T05:33:40;-4.30;99.90
12386;DHT22;6257;57.634;18.310;2022-12-24T05:36:07;-4.30;99.90
12386;DHT22;6257;57.634;18.310;2022-12-24T05:38:35;-4.30;99.90
12386;DHT22;6257;57.634;18.310;2022-12-24T05:41:02;-4.30;99.90
12386;DHT22;6257;57.634;18.310;2022-12-24T05:43:30;-4.40;99.90
12386;DHT22;6257;57.634;18.310;2022-12-24T05:45:58;-3.70;99.90
12386;DHT22;6257;57.634;18.310;2022-12-24T05:48:27;-4.40;99.90
12386;DHT22;6257;57.634;18.310;2022-12-24T05:50:54;-4.40;99.90
12386;DHT22;6257;57.634;18.310;2022-12-24T05:53:22;-4.50;99.90
12386;DHT22;6257;57.634;18.310;2022-12-24T05:55:50;-4.40;99.90
12386;DHT22;6257;57.634;18.310;2022-12-24T05:58:17;-4.40;99.90
12386;DHT22;6257;57.634;18.310;2022-12-24T06:00:44;-4.50;99.90
12386;DHT22;6257;57.634;18.310;2022-12-24T06:03:11;-4.40;99.90
12386;DHT22;6257;57.634;18.310;2022-12-24T06:05:40;-4.50;99.90
12386;DHT22;6257;57.634;18.310;2022-12-24T06:08:07;-3.50;99.90
12386;DHT22;6257;57.634;18.310;2022-12-24T06:10:34;-2.50;99.90
12386;DHT22;6257;57.634;18.310;2022-12-24T06:13:02;-3.40;99.90
12386;DHT22;6257;57.634;18.310;2022-12-24T06:15:29;-4.60;99.90
12386;DHT22;6257;57.634;18.310;2022-12-24T06:17:56;-4.60;99.90
12386;DHT22;6257;57.634;18.310;2022-12-24T06:20:23;-4.60;99.90
12386;DHT22;6257;57.634;18.310;2022-12-24T06:22:52;-4.60;99.90
12386;DHT22;6257;57.634;18.310;2022-12-24T06:25:19;-4.60;99.90
12386;DHT22;6257;57.634;18.310;2022-12-24T06:27:46;-4.70;99.90
12386;DHT22;6257;57.634;18.310;2022-12-24T06:30:13;-4.70;99.90
12386;DHT22;6257;57.634;18.310;2022-12-24T06:32:41;-4.70;99.90
12386;DHT22;6257;57.634;18.310;2022-12-24T06:35:08;-4.70;99.90
12386;DHT22;6257;57.634;18.310;2022-12-24T06:37:35;-4.70;99.90
12386;DHT22;6257;57.634;18.310;2022-12-24T06:40:05;-4.70;99.90
12386;DHT22;6257;57.634;18.310;2022-12-24T06:42:32;-4.70;99.90
12386;DHT22;6257;57.634;18.310;2022-12-24T06:44:59;-4.70;99.90
12386;DHT22;6257;57.634;18.310;2022-12-24T06:47:26;-4.70;99.90
12386;DHT22;6257;57.634;18.310;2022-12-24T06:49:53;-4.70;99.90
12386;DHT22;6257;57.634;18.310;2022-12-24T06:52:20;-4.70;99.90
12386;DHT22;6257;57.634;18.310;2022-12-24T06:54:47;-4.40;99.90
12386;DHT22;6257;57.634;18.310;2022-12-24T06:57:16;-4.70;99.90
12386;DHT22;6257;57.634;18.310;2022-12-24T06:59:43;-4.70;99.90
12386;DHT22;6257;57.634;18.310;2022-12-24T07:02:10;-4.80;99.90
12386;DHT22;6257;57.634;18.310;2022-12-24T07:04:37;-4.80;99.90
12386;DHT22;6257;57.634;18.310;2022-12-24T07:07:04;-4.70;99.90
12386;DHT22;6257;57.634;18.310;2022-12-24T07:09:31;-4.70;99.90
12386;DHT22;6257;57.634;18.310;2022-12-24T07:11:58;-2.60;99.90
12386;DHT22;6257;57.634;18.310;2022-12-24T07:14:27;-4.70;99.90
12386;DHT22;6257;57.634;18.310;2022-12-24T07:16:54;-4.60;99.90
12386;DHT22;6257;57.634;18.310;2022-12-24T07:19:21;-4.70;99.90
12386;DHT22;6257;57.634;18.310;2022-12-24T07:21:48;-4.70;99.90
12386;DHT22;6257;57.634;18.310;2022-12-24T07:24:16;-4.70;99.90
12386;DHT22;6257;57.634;18.310;2022-12-24T07:26:43;-4.80;99.90
12386;DHT22;6257;57.634;18.310;2022-12-24T07:29:10;-4.80;99.90
12386;DHT22;6257;57.634;18.310;2022-12-24T07:31:39;-4.90;99.90
12386;DHT22;6257;57.634;18.310;2022-12-24T07:34:06;-4.90;99.90
12386;DHT22;6257;57.634;18.310;2022-12-24T07:36:33;-4.90;99.90
12386;DHT22;6257;57.634;18.310;2022-12-24T07:39:00;-2.50;99.90
12386;DHT22;6257;57.634;18.310;2022-12-24T07:41:27;-4.90;99.90
12386;DHT22;6257;57.634;18.310;2022-12-24T07:43:54;-4.70;99.90
12386;DHT22;6257;57.634;18.310;2022-12-24T07:46:21;-4.80;99.90
12386;DHT22;6257;57.634;18.310;2022-12-24T07:48:50;-4.80;99.90
12386;DHT22;6257;57.634;18.310;2022-12-24T07:51:17;-4.80;99.90
12386;DHT22;6257;57.634;18.310;2022-12-24T07:53:44;-4.80;99.90
12386;DHT22;6257;57.634;18.310;2022-12-24T07:56:12;-4.70;99.90
12386;DHT22;6257;57.634;18.310;2022-12-24T07:58:40;-4.70;99.90
12386;DHT22;6257;57.634;18.310;2022-12-24T08:01:08;-4.70;99.90
12386;DHT22;6257;57.634;18.310;2022-12-24T08:03:35;-4.70;99.90
12386;DHT22;6257;57.634;18.310;2022-12-24T08:06:04;-4.70;99.90
12386;DHT22;6257;57.634;18.310;2022-12-24T08:08:31;-4.70;99.90
12386;DHT22;6257;57.634;18.310;2022-12-24T08:11:00;-4.70;99.90
12386;DHT22;6257;57.634;18.310;2022-12-24T08:13:28;-4.70;99.90
12386;DHT22;6257;57.634;18.310;2022-12-24T08:15:55;-4.60;99.90
12386;DHT22;6257;57.634;18.310;2022-12-24T08:18:23;-4.60;99.90
12386;DHT22;6257;57.634;18.310;2022-12-24T08:20:50;-4.60;99.90
12386;DHT22;6257;57.634;18.310;2022-12-24T08:23:19;-4.50;99.90
12386;DHT22;6257;57.634;18.310;2022-12-24T08:25:47;-4.50;99.90
12386;DHT22;6257;57.634;18.310;2022-12-24T08:28:18;-4.50;99.90
12386;DHT22;6257;57.634;18.310;2022-12-24T08:30:47;-2.70;99.90
12386;DHT22;6257;57.634;18.310;2022-12-24T08:33:14;-4.40;99.90
12386;DHT22;6257;57.634;18.310;2022-12-24T08:35:46;-1.60;99.90
12386;DHT22;6257;57.634;18.310;2022-12-24T08:38:13;-2.40;99.90
12386;DHT22;6257;57.634;18.310;2022-12-24T08:40:43;-4.20;99.90
12386;DHT22;6257;57.634;18.310;2022-12-24T08:43:12;-4.10;99.90
12386;DHT22;6257;57.634;18.310;2022-12-24T08:45:39;-4.10;99.90
12386;DHT22;6257;57.634;18.310;2022-12-24T08:48:06;-4.10;99.90
12386;DHT22;6257;57.634;18.310;2022-12-24T08:50:34;-1.40;99.90
12386;DHT22;6257;57.634;18.310;2022-12-24T08:53:01;-4.00;99.90
12386;DHT22;6257;57.634;18.310;2022-12-24T08:55:29;-1.20;99.90
12386;DHT22;6257;57.634;18.310;2022-12-24T08:57:58;-3.80;99.90
12386;DHT22;6257;57.634;18.310;2022-12-24T09:00:25;-3.80;99.90
12386;DHT22;6257;57.634;18.310;2022-12-24T09:02:52;-3.70;99.90
12386;DHT22;6257;57.634;18.310;2022-12-24T09:05:20;-3.70;99.90
12386;DHT22;6257;57.634;18.310;2022-12-24T09:07:47;-3.60;99.90
12386;DHT22;6257;57.634;18.310;2022-12-24T09:10:14;-3.50;99.90
12386;DHT22;6257;57.634;18.310;2022-12-24T09:12:41;-3.50;99.90
12386;DHT22;6257;57.634;18.310;2022-12-24T09:15:10;-3.40;99.90
12386;DHT22;6257;57.634;18.310;2022-12-24T09:17:39;-3.30;99.90
12386;DHT22;6257;57.634;18.310;2022-12-24T09:20:07;-3.20;99.90
12386;DHT22;6257;57.634;18.310;2022-12-24T09:22:35;-3.10;99.90
12386;DHT22;6257;57.634;18.310;2022-12-24T09:25:03;-3.00;99.90
12386;DHT22;6257;57.634;18.310;2022-12-24T09:27:32;-2.90;99.90
12386;DHT22;6257;57.634;18.310;2022-12-24T09:29:59;-2.80;99.90
12386;DHT22;6257;57.634;18.310;2022-12-24T09:32:27;-2.70;99.90
12386;DHT22;6257;57.634;18.310;2022-12-24T09:34:54;-2.70;99.90
12386;DHT22;6257;57.634;18.310;2022-12-24T09:37:22;-2.60;99.90
12386;DHT22;6257;57.634;18.310;2022-12-24T09:39:49;-2.50;99.90
12386;DHT22;6257;57.634;18.310;2022-12-24T09:42:26;-2.50;99.90
12386;DHT22;6257;57.634;18.310;2022-12-24T09:44:59;-2.30;99.90
12386;DHT22;6257;57.634;18.310;2022-12-24T09:47:33;-2.20;99.90
12386;DHT22;6257;57.634;18.310;2022-12-24T09:50:20;-2.20;99.90
12386;DHT22;6257;57.634;18.310;2022-12-24T09:52:49;-2.20;99.90
12386;DHT22;6257;57.634;18.310;2022-12-24T09:55:22;-0.60;99.90
12386;DHT22;6257;57.634;18.310;2022-12-24T09:57:53;-0.50;99.90
12386;DHT22;6257;57.634;18.310;2022-12-24T10:00:23;-0.60;99.90
12386;DHT22;6257;57.634;18.310;2022-12-24T10:02:53;-1.70;99.90
12386;DHT22;6257;57.634;18.310;2022-12-24T10:05:28;-1.80;99.90
12386;DHT22;6257;57.634;18.310;2022-12-24T10:08:01;-1.80;99.90
12386;DHT22;6257;57.634;18.310;2022-12-24T10:10:38;0.10;99.90
12386;DHT22;6257;57.634;18.310;2022-12-24T10:13:13;0.00;99.90
12386;DHT22;6257;57.634;18.310;2022-12-24T10:15:47;-0.90;99.90
12386;DHT22;6257;57.634;18.310;2022-12-24T10:18:26;0.20;99.90
12386;DHT22;6257;57.634;18.310;2022-12-24T10:21:01;-1.30;99.90
12386;DHT22;6257;57.634;18.310;2022-12-24T10:23:36;0.10;99.90
12386;DHT22;6257;57.634;18.310;2022-12-24T10:26:11;-1.00;99.90
12386;DHT22;6257;57.634;18.310;2022-12-24T10:28:45;-0.20;99.90
12386;DHT22;6257;57.634;18.310;2022-12-24T10:31:13;0.00;99.90
12386;DHT22;6257;57.634;18.310;2022-12-24T10:33:44;-0.30;99.90
12386;DHT22;6257;57.634;18.310;2022-12-24T10:36:30;-0.90;99.90
12386;DHT22;6257;57.634;18.310;2022-12-24T10:39:15;-0.90;99.90
12386;DHT22;6257;57.634;18.310;2022-12-24T10:41:44;-0.50;99.90
12386;DHT22;6257;57.634;18.310;2022-12-24T10:44:15;-0.40;99.90
12386;DHT22;6257;57.634;18.310;2022-12-24T10:46:43;0.20;99.90
12386;DHT22;6257;57.634;18.310;2022-12-24T10:49:15;-0.70;99.90
12386;DHT22;6257;57.634;18.310;2022-12-24T10:51:46;0.00;99.90
12386;DHT22;6257;57.634;18.310;2022-12-24T10:54:17;-0.50;99.90
12386;DHT22;6257;57.634;18.310;2022-12-24T10:56:46;0.10;99.90
12386;DHT22;6257;57.634;18.310;2022-12-24T10:59:26;0.10;99.90
12386;DHT22;6257;57.634;18.310;2022-12-24T11:01:55;-0.50;99.90
12386;DHT22;6257;57.634;18.310;2022-12-24T11:04:25;-0.50;99.90
12386;DHT22;6257;57.634;18.310;2022-12-24T11:06:55;-0.40;99.90
12386;DHT22;6257;57.634;18.310;2022-12-24T11:09:24;-0.40;99.90
12386;DHT22;6257;57.634;18.310;2022-12-24T11:11:52;0.20;99.90
12386;DHT22;6257;57.634;18.310;2022-12-24T11:14:21;-0.20;99.90
12386;DHT22;6257;57.634;18.310;2022-12-24T11:16:50;-0.20;99.90
12386;DHT22;6257;57.634;18.310;2022-12-24T11:19:25;-0.10;99.90
12386;DHT22;6257;57.634;18.310;2022-12-24T11:21:58;0.00;99.90
12386;DHT22;6257;57.634;18.310;2022-12-24T11:24:29;0.10;99.90
12386;DHT22;6257;57.634;18.310;2022-12-24T11:27:23;0.10;99.90
12386;DHT22;6257;57.634;18.310;2022-12-24T11:30:21;0.10;99.90
12386;DHT22;6257;57.634;18.310;2022-12-24T11:32:50;0.10;99.90
12386;DHT22;6257;57.634;18.310;2022-12-24T11:35:22;0.10;99.90
12386;DHT22;6257;57.634;18.310;2022-12-24T11:38:09;0.00;99.90
12386;DHT22;6257;57.634;18.310;2022-12-24T11:40:40;0.10;99.90
12386;DHT22;6257;57.634;18.310;2022-12-24T11:43:14;0.00;99.90
12386;DHT22;6257;57.634;18.310;2022-12-24T11:45:47;-0.10;99.90
12386;DHT22;6257;57.634;18.310;2022-12-24T11:48:27;0.00;99.90
12386;DHT22;6257;57.634;18.310;2022-12-24T11:50:58;-0.10;99.90
12386;DHT22;6257;57.634;18.310;2022-12-24T11:53:30;-0.10;99.90
12386;DHT22;6257;57.634;18.310;2022-12-24T11:56:04;-0.20;99.90
12386;DHT22;6257;57.634;18.310;2022-12-24T11:58:37;-0.20;99.90
12386;DHT22;6257;57.634;18.310;2022-12-24T12:01:13;0.60;99.90
12386;DHT22;6257;57.634;18.310;2022-12-24T12:03:45;-0.10;99.90
12386;DHT22;6257;57.634;18.310;2022-12-24T12:06:23;-0.20;99.90
12386;DHT22;6257;57.634;18.310;2022-12-24T12:08:55;-0.20;99.90
12386;DHT22;6257;57.634;18.310;2022-12-24T12:11:24;-0.20;99.90
12386;DHT22;6257;57.634;18.310;2022-12-24T12:13:54;-0.30;99.90
12386;DHT22;6257;57.634;18.310;2022-12-24T12:16:26;-0.30;99.90
12386;DHT22;6257;57.634;18.310;2022-12-24T12:18:58;-0.30;99.90
12386;DHT22;6257;57.634;18.310;2022-12-24T12:21:34;-0.30;99.90
12386;DHT22;6257;57.634;18.310;2022-12-24T12:24:05;-0.30;99.90
12386;DHT22;6257;57.634;18.310;2022-12-24T12:26:33;-0.40;99.90
12386;DHT22;6257;57.634;18.310;2022-12-24T12:29:13;0.60;99.90
12386;DHT22;6257;57.634;18.310;2022-12-24T12:31:47;-0.40;99.90
12386;DHT22;6257;57.634;18.310;2022-12-24T12:34:20;0.60;99.90
12386;DHT22;6257;57.634;18.310;2022-12-24T12:36:54;-0.50;99.90
12386;DHT22;6257;57.634;18.310;2022-12-24T12:39:23;-0.40;99.90
12386;DHT22;6257;57.634;18.310;2022-12-24T12:41:55;-0.40;99.90
12386;DHT22;6257;57.634;18.310;2022-12-24T12:44:48;0.50;99.90
12386;DHT22;6257;57.634;18.310;2022-12-24T12:47:32;-0.50;99.90
12386;DHT22;6257;57.634;18.310;2022-12-24T12:50:08;-0.50;99.90
12386;DHT22;6257;57.634;18.310;2022-12-24T12:52:51;-0.60;99.90
12386;DHT22;6257;57.634;18.310;2022-12-24T12:55:30;-0.70;99.90
12386;DHT22;6257;57.634;18.310;2022-12-24T12:58:02;-0.70;99.90
12386;DHT22;6257;57.634;18.310;2022-12-24T13:00:35;0.10;99.90
12386;DHT22;6257;57.634;18.310;2022-12-24T13:09:23;-0.70;99.90
12386;DHT22;6257;57.634;18.310;2022-12-24T13:15:19;-0.80;99.90
12386;DHT22;6257;57.634;18.310;2022-12-24T13:18:12;-0.80;99.90
12386;DHT22;6257;57.634;18.310;2022-12-24T13:20:47;-0.80;99.90
12386;DHT22;6257;57.634;18.310;2022-12-24T13:23:19;-0.40;99.90
12386;DHT22;6257;57.634;18.310;2022-12-24T13:25:49;-0.70;99.90
12386;DHT22;6257;57.634;18.310;2022-12-24T13:28:33;-0.10;99.90
12386;DHT22;6257;57.634;18.310;2022-12-24T13:31:25;-0.70;99.90
12386;DHT22;6257;57.634;18.310;2022-12-24T13:33:58;-0.80;99.90
12386;DHT22;6257;57.634;18.310;2022-12-24T13:40:14;-1.00;99.90
12386;DHT22;6257;57.634;18.310;2022-12-24T13:42:49;-1.00;99.90
12386;DHT22;6257;57.634;18.310;2022-12-24T13:45:45;-1.10;99.90
12386;DHT22;6257;57.634;18.310;2022-12-24T13:48:28;-1.20;99.90
12386;DHT22;6257;57.634;18.310;2022-12-24T13:50:57;-1.20;99.90
12386;DHT22;6257;57.634;18.310;2022-12-24T13:53:29;-1.30;99.90
12386;DHT22;6257;57.634;18.310;2022-12-24T13:56:03;-1.40;99.90
12386;DHT22;6257;57.634;18.310;2022-12-24T13:58:35;-1.20;99.90
12386;DHT22;6257;57.634;18.310;2022-12-24T14:01:05;-0.30;99.90
12386;DHT22;6257;57.634;18.310;2022-12-24T14:03:40;-1.60;99.90
12386;DHT22;6257;57.634;18.310;2022-12-24T14:06:10;-0.50;99.90
12386;DHT22;6257;57.634;18.310;2022-12-24T14:08:40;-1.70;99.90
12386;DHT22;6257;57.634;18.310;2022-12-24T14:11:11;-1.40;99.90
12386;DHT22;6257;57.634;18.310;2022-12-24T14:14:19;-1.80;99.90
12386;DHT22;6257;57.634;18.310;2022-12-24T14:16:54;-1.90;99.90
12386;DHT22;6257;57.634;18.310;2022-12-24T14:19:24;-2.00;99.90
12386;DHT22;6257;57.634;18.310;2022-12-24T14:21:57;-2.00;99.90
12386;DHT22;6257;57.634;18.310;2022-12-24T14:24:32;-2.10;99.90
12386;DHT22;6257;57.634;18.310;2022-12-24T14:27:06;-0.80;99.90
12386;DHT22;6257;57.634;18.310;2022-12-24T14:29:42;-2.10;99.90
12386;DHT22;6257;57.634;18.310;2022-12-24T14:32:14;-2.20;99.90
12386;DHT22;6257;57.634;18.310;2022-12-24T14:34:41;-1.80;99.90
12386;DHT22;6257;57.634;18.310;2022-12-24T14:37:09;-2.20;99.90
12386;DHT22;6257;57.634;18.310;2022-12-24T14:39:41;-2.20;99.90
12386;DHT22;6257;57.634;18.310;2022-12-24T14:42:27;-2.20;99.90
12386;DHT22;6257;57.634;18.310;2022-12-24T14:45:04;-2.20;99.90
12386;DHT22;6257;57.634;18.310;2022-12-24T14:47:38;-2.30;99.90
12386;DHT22;6257;57.634;18.310;2022-12-24T14:50:35;-0.70;99.90
12386;DHT22;6257;57.634;18.310;2022-12-24T14:53:15;-2.40;99.90
12386;DHT22;6257;57.634;18.310;2022-12-24T14:55:46;-2.60;99.90
12386;DHT22;6257;57.634;18.310;2022-12-24T14:58:25;-0.70;99.90
12386;DHT22;6257;57.634;18.310;2022-12-24T15:00:55;-2.60;99.90
12386;DHT22;6257;57.634;18.310;2022-12-24T15:03:28;-2.70;99.90
12386;DHT22;6257;57.634;18.310;2022-12-24T15:05:57;-2.80;99.90
12386;DHT22;6257;57.634;18.310;2022-12-24T15:08:31;-2.80;99.90
12386;DHT22;6257;57.634;18.310;2022-12-24T15:11:02;-2.90;99.90
12386;DHT22;6257;57.634;18.310;2022-12-24T15:13:33;-1.00;99.90
12386;DHT22;6257;57.634;18.310;2022-12-24T15:16:05;-2.90;99.90
12386;DHT22;6257;57.634;18.310;2022-12-24T15:18:36;-3.00;99.90
12386;DHT22;6257;57.634;18.310;2022-12-24T15:21:06;-3.00;99.90
12386;DHT22;6257;57.634;18.310;2022-12-24T15:23:35;-3.00;99.90
12386;DHT22;6257;57.634;18.310;2022-12-24T15:26:10;-3.00;99.90
12386;DHT22;6257;57.634;18.310;2022-12-24T15:28:40;-3.00;99.90
12386;DHT22;6257;57.634;18.310;2022-12-24T15:31:11;-3.10;99.90
12386;DHT22;6257;57.634;18.310;2022-12-24T15:33:38;-3.20;99.90
12386;DHT22;6257;57.634;18.310;2022-12-24T15:36:07;-3.30;99.90
12386;DHT22;6257;57.634;18.310;2022-12-24T15:38:36;-3.30;99.90
12386;DHT22;6257;57.634;18.310;2022-12-24T15:41:07;-0.90;99.90
12386;DHT22;6257;57.634;18.310;2022-12-24T15:43:40;-1.30;99.90
12386;DHT22;6257;57.634;18.310;2022-12-24T15:46:17;-3.40;99.90
12386;DHT22;6257;57.634;18.310;2022-12-24T15:48:45;-0.60;99.90
12386;DHT22;6257;57.634;18.310;2022-12-24T15:51:21;-3.50;99.90
12386;DHT22;6257;57.634;18.310;2022-12-24T15:53:52;-0.40;99.90
12386;DHT22;6257;57.634;18.310;2022-12-24T15:56:30;-3.50;99.90
12386;DHT22;6257;57.634;18.310;2022-12-24T15:59:22;-3.50;99.90
12386;DHT22;6257;57.634;18.310;2022-12-24T16:01:53;-3.60;99.90
12386;DHT22;6257;57.634;18.310;2022-12-24T16:04:23;-3.60;99.90
12386;DHT22;6257;57.634;18.310;2022-12-24T16:06:54;-1.30;99.90
12386;DHT22;6257;57.634;18.310;2022-12-24T16:09:32;-3.70;99.90
12386;DHT22;6257;57.634;18.310;2022-12-24T16:12:11;-3.50;99.90
12386;DHT22;6257;57.634;18.310;2022-12-24T16:14:39;-3.80;99.90
12386;DHT22;6257;57.634;18.310;2022-12-24T16:17:17;-3.80;99.90
12386;DHT22;6257;57.634;18.310;2022-12-24T16:19:47;-3.80;99.90